sensor_id;sensor_type;location;lat;lon;timestamp;P1;durP1;ratioP1;P2;durP2;ratioP2
7503;SDS011;3793;48.136;11.536;2023-11-22T00:01:33;12.63;;;8.30;;
7503;SDS011;3793;48.136;11.536;2023-11-22T00:04:19;14.73;;;8.20;;
7503;SDS011;3793;48.136;11.536;2023-11-22T00:07:07;11.60;;;8.17;;
7503;SDS011;3793;48.136;11.536;2023-11-22T00:09:47;11.73;;;9.13;;
7503;SDS011;3793;48.136;11.536;2023-11-22T00:12:36;11.83;;;8.40;;
7503;SDS011;3793;48.136;11.536;2023-11-22T00:15:19;13.00;;;9.13;;
7503;SDS011;3793;48.136;11.536;2023-11-22T00:28:21;13.73;;;9.10;;
7503;SDS011;3793;48.136;11.536;2023-11-22T00:30:53;13.57;;;8.00;;
7503;SDS011;3793;48.136;11.536;2023-11-22T00:33:46;13.33;;;8.97;;
7503;SDS011;3793;48.136;11.536;2023-11-22T00:36:20;13.63;;;9.67;;
7503;SDS011;3793;48.136;11.536;2023-11-22T00:38:52;11.67;;;9.27;;
7503;SDS011;3793;48.136;11.536;2023-11-22T00:41:29;16.57;;;8.03;;
7503;SDS011;3793;48.136;11.536;2023-11-22T00:44:03;12.73;;;8.97;;
7503;SDS011;3793;48.136;11.536;2023-11-22T00:46:31;14.23;;;8.83;;
7503;SDS011;3793;48.136;11.536;2023-11-22T00:49:06;12.93;;;8.73;;
7503;SDS011;3793;48.136;11.536;2023-11-22T00:51:35;10.50;;;8.10;;
7503;SDS011;3793;48.136;11.536;2023-11-22T00:56:50;12.20;;;8.87;;
7503;SDS011;3793;48.136;11.536;2023-11-22T00:59:37;11.33;;;9.13;;
7503;SDS011;3793;48.136;11.536;2023-11-22T01:02:18;14.63;;;8.20;;
7503;SDS011;3793;48.136;11.536;2023-11-22T01:07:43;15.67;;;8.90;;
7503;SDS011;3793;48.136;11.536;2023-11-22T01:10:15;11.60;;;7.83;;
7503;SDS011;3793;48.136;11.536;2023-11-22T01:12:58;13.83;;;8.83;;
7503;SDS011;3793;48.136;11.536;2023-11-22T01:15:41;16.17;;;9.43;;
7503;SDS011;3793;48.136;11.536;2023-11-22T01:18:18;15.83;;;9.23;;
7503;SDS011;3793;48.136;11.536;2023-11-22T01:20:55;11.77;;;8.87;;
7503;SDS011;3793;48.136;11.536;2023-11-22T01:26:32;12.90;;;8.57;;
7503;SDS011;3793;48.136;11.536;2023-11-22T01:29:16;12.33;;;9.23;;
7503;SDS011;3793;48.136;11.536;2023-11-22T01:32:02;12.43;;;9.17;;
7503;SDS011;3793;48.136;11.536;2023-11-22T01:37:47;14.93;;;9.63;;
7503;SDS011;3793;48.136;11.536;2023-11-22T01:40:40;14.27;;;9.17;;
7503;SDS011;3793;48.136;11.536;2023-11-22T01:43:21;14.07;;;9.03;;
7503;SDS011;3793;48.136;11.536;2023-11-22T01:46:04;12.40;;;8.93;;
7503;SDS011;3793;48.136;11.536;2023-11-22T01:48:52;14.00;;;9.07;;
7503;SDS011;3793;48.136;11.536;2023-11-22T01:51:28;12.40;;;9.27;;
7503;SDS011;3793;48.136;11.536;2023-11-22T01:54:02;11.97;;;9.33;;
7503;SDS011;3793;48.136;11.536;2023-11-22T01:56:32;13.20;;;9.17;;
7503;SDS011;3793;48.136;11.536;2023-11-22T01:59:07;11.67;;;8.53;;
7503;SDS011;3793;48.136;11.536;2023-11-22T02:01:42;13.87;;;9.17;;
7503;SDS011;3793;48.136;11.536;2023-11-22T02:04:35;10.90;;;8.67;;
7503;SDS011;3793;48.136;11.536;2023-11-22T02:07:12;13.00;;;9.17;;
7503;SDS011;3793;48.136;11.536;2023-11-22T02:09:58;12.30;;;9.87;;
7503;SDS011;3793;48.136;11.536;2023-11-22T02:12:35;8.70;;;7.73;;
7503;SDS011;3793;48.136;11.536;2023-11-22T02:15:18;9.07;;;5.83;;
7503;SDS011;3793;48.136;11.536;2023-11-22T02:18:05;7.90;;;6.00;;
7503;SDS011;3793;48.136;11.536;2023-11-22T02:20:39;10.83;;;6.40;;
7503;SDS011;3793;48.136;11.536;2023-11-22T02:23:19;6.53;;;5.17;;
7503;SDS011;3793;48.136;11.536;2023-11-22T02:26:06;6.93;;;5.30;;
7503;SDS011;3793;48.136;11.536;2023-11-22T02:28:46;5.93;;;4.50;;
7503;SDS011;3793;48.136;11.536;2023-11-22T02:31:16;4.10;;;3.70;;
7503;SDS011;3793;48.136;11.536;2023-11-22T02:34:04;3.67;;;2.90;;
7503;SDS011;3793;48.136;11.536;2023-11-22T02:36:52;3.30;;;3.00;;
7503;SDS011;3793;48.136;11.536;2023-11-22T02:39:43;3.40;;;2.60;;
7503;SDS011;3793;48.136;11.536;2023-11-22T02:42:17;6.13;;;2.70;;
7503;SDS011;3793;48.136;11.536;2023-11-22T02:45:00;3.47;;;2.87;;
7503;SDS011;3793;48.136;11.536;2023-11-22T02:55:24;3.83;;;2.83;;
7503;SDS011;3793;48.136;11.536;2023-11-22T02:57:56;5.13;;;3.10;;
7503;SDS011;3793;48.136;11.536;2023-11-22T03:00:25;4.67;;;3.40;;
7503;SDS011;3793;48.136;11.536;2023-11-22T03:03:07;2.90;;;2.60;;
7503;SDS011;3793;48.136;11.536;2023-11-22T03:05:37;4.23;;;3.03;;
7503;SDS011;3793;48.136;11.536;2023-11-22T03:14:00;3.10;;;2.20;;
7503;SDS011;3793;48.136;11.536;2023-11-22T03:16:30;3.33;;;2.40;;
7503;SDS011;3793;48.136;11.536;2023-11-22T03:19:02;3.00;;;2.53;;
7503;SDS011;3793;48.136;11.536;2023-11-22T03:21:51;2.60;;;2.20;;
7503;SDS011;3793;48.136;11.536;2023-11-22T03:24:24;3.33;;;2.73;;
7503;SDS011;3793;48.136;11.536;2023-11-22T03:26:53;3.23;;;2.70;;
7503;SDS011;3793;48.136;11.536;2023-11-22T03:29:37;3.23;;;2.83;;
7503;SDS011;3793;48.136;11.536;2023-11-22T03:32:11;4.30;;;2.97;;
7503;SDS011;3793;48.136;11.536;2023-11-22T03:34:41;4.93;;;3.20;;
7503;SDS011;3793;48.136;11.536;2023-11-22T03:37:13;4.80;;;2.93;;
7503;SDS011;3793;48.136;11.536;2023-11-22T03:39:50;2.57;;;2.37;;
7503;SDS011;3793;48.136;11.536;2023-11-22T03:42:34;4.47;;;3.37;;
7503;SDS011;3793;48.136;11.536;2023-11-22T03:45:17;3.73;;;2.93;;
7503;SDS011;3793;48.136;11.536;2023-11-22T03:51:01;4.40;;;3.20;;
7503;SDS011;3793;48.136;11.536;2023-11-22T03:53:36;6.23;;;3.30;;
7503;SDS011;3793;48.136;11.536;2023-11-22T03:56:05;4.07;;;3.07;;
7503;SDS011;3793;48.136;11.536;2023-11-22T03:58:39;5.37;;;3.73;;
7503;SDS011;3793;48.136;11.536;2023-11-22T04:04:15;4.73;;;3.93;;
7503;SDS011;3793;48.136;11.536;2023-11-22T04:06:49;4.93;;;3.30;;
7503;SDS011;3793;48.136;11.536;2023-11-22T04:09:25;4.53;;;3.80;;
7503;SDS011;3793;48.136;11.536;2023-11-22T04:12:01;4.17;;;3.20;;
7503;SDS011;3793;48.136;11.536;2023-11-22T04:14:31;5.77;;;3.47;;
7503;SDS011;3793;48.136;11.536;2023-11-22T04:17:01;5.10;;;3.70;;
7503;SDS011;3793;48.136;11.536;2023-11-22T04:19:35;6.07;;;3.70;;
7503;SDS011;3793;48.136;11.536;2023-11-22T04:22:02;3.63;;;2.97;;
7503;SDS011;3793;48.136;11.536;2023-11-22T04:24:31;4.43;;;3.40;;
7503;SDS011;3793;48.136;11.536;2023-11-22T04:27:02;5.47;;;3.60;;
7503;SDS011;3793;48.136;11.536;2023-11-22T04:29:32;4.80;;;3.80;;
7503;SDS011;3793;48.136;11.536;2023-11-22T04:32:05;4.47;;;3.50;;
7503;SDS011;3793;48.136;11.536;2023-11-22T04:34:35;3.70;;;2.93;;
7503;SDS011;3793;48.136;11.536;2023-11-22T04:37:15;3.60;;;3.13;;
7503;SDS011;3793;48.136;11.536;2023-11-22T04:40:02;4.07;;;3.40;;
7503;SDS011;3793;48.136;11.536;2023-11-22T04:42:33;4.87;;;3.63;;
7503;SDS011;3793;48.136;11.536;2023-11-22T04:45:03;4.27;;;3.80;;
7503;SDS011;3793;48.136;11.536;2023-11-22T04:47:32;3.53;;;3.23;;
7503;SDS011;3793;48.136;11.536;2023-11-22T04:50:10;3.37;;;3.00;;
7503;SDS011;3793;48.136;11.536;2023-11-22T04:52:42;4.90;;;3.27;;
7503;SDS011;3793;48.136;11.536;2023-11-22T04:55:12;3.40;;;3.10;;
7503;SDS011;3793;48.136;11.536;2023-11-22T04:57:46;6.77;;;3.10;;
7503;SDS011;3793;48.136;11.536;2023-11-22T05:00:21;4.97;;;3.10;;
7503;SDS011;3793;48.136;11.536;2023-11-22T05:02:48;4.83;;;3.00;;
7503;SDS011;3793;48.136;11.536;2023-11-22T05:05:16;4.23;;;3.07;;
7503;SDS011;3793;48.136;11.536;2023-11-22T05:07:43;4.60;;;2.77;;
7503;SDS011;3793;48.136;11.536;2023-11-22T05:10:10;3.80;;;2.87;;
7503;SDS011;3793;48.136;11.536;2023-11-22T05:12:37;3.83;;;2.67;;
7503;SDS011;3793;48.136;11.536;2023-11-22T05:15:04;3.67;;;3.30;;
7503;SDS011;3793;48.136;11.536;2023-11-22T05:17:30;3.80;;;3.37;;
7503;SDS011;3793;48.136;11.536;2023-11-22T05:19:57;3.80;;;2.80;;
7503;SDS011;3793;48.136;11.536;2023-11-22T05:22:25;3.67;;;3.27;;
7503;SDS011;3793;48.136;11.536;2023-11-22T05:24:52;4.20;;;3.50;;
7503;SDS011;3793;48.136;11.536;2023-11-22T05:27:18;4.10;;;3.07;;
7503;SDS011;3793;48.136;11.536;2023-11-22T05:29:45;4.63;;;3.40;;
7503;SDS011;3793;48.136;11.536;2023-11-22T05:32:11;6.30;;;4.03;;
7503;SDS011;3793;48.136;11.536;2023-11-22T05:34:38;3.63;;;3.13;;
7503;SDS011;3793;48.136;11.536;2023-11-22T05:37:05;3.13;;;2.50;;
7503;SDS011;3793;48.136;11.536;2023-11-22T05:39:33;3.73;;;2.70;;
7503;SDS011;3793;48.136;11.536;2023-11-22T05:42:01;3.00;;;2.70;;
7503;SDS011;3793;48.136;11.536;2023-11-22T05:44:28;3.17;;;2.63;;
7503;SDS011;3793;48.136;11.536;2023-11-22T05:46:54;5.80;;;3.23;;
7503;SDS011;3793;48.136;11.536;2023-11-22T05:49:21;3.73;;;2.90;;
7503;SDS011;3793;48.136;11.536;2023-11-22T05:51:48;3.80;;;2.73;;
7503;SDS011;3793;48.136;11.536;2023-11-22T05:54:14;3.97;;;2.80;;
7503;SDS011;3793;48.136;11.536;2023-11-22T05:56:43;3.50;;;3.07;;
7503;SDS011;3793;48.136;11.536;2023-11-22T05:59:09;3.27;;;2.63;;
7503;SDS011;3793;48.136;11.536;2023-11-22T06:01:36;3.60;;;2.80;;
7503;SDS011;3793;48.136;11.536;2023-11-22T06:04:02;4.13;;;2.93;;
7503;SDS011;3793;48.136;11.536;2023-11-22T06:06:29;4.63;;;2.90;;
7503;SDS011;3793;48.136;11.536;2023-11-22T06:08:56;4.40;;;3.40;;
7503;SDS011;3793;48.136;11.536;2023-11-22T06:11:22;3.40;;;2.80;;
7503;SDS011;3793;48.136;11.536;2023-11-22T06:13:51;3.67;;;3.00;;
7503;SDS011;3793;48.136;11.536;2023-11-22T06:16:18;3.47;;;2.90;;
7503;SDS011;3793;48.136;11.536;2023-11-22T06:18:45;3.93;;;3.23;;
7503;SDS011;3793;48.136;11.536;2023-11-22T06:21:12;3.50;;;3.20;;
7503;SDS011;3793;48.136;11.536;2023-11-22T06:23:38;3.43;;;3.03;;
7503;SDS011;3793;48.136;11.536;2023-11-22T06:26:05;3.60;;;3.07;;
7503;SDS011;3793;48.136;11.536;2023-11-22T06:28:32;4.93;;;3.13;;
7503;SDS011;3793;48.136;11.536;2023-11-22T06:31:01;5.70;;;3.50;;
7503;SDS011;3793;48.136;11.536;2023-11-22T06:33:28;4.23;;;3.70;;
7503;SDS011;3793;48.136;11.536;2023-11-22T06:35:54;6.10;;;4.87;;
7503;SDS011;3793;48.136;11.536;2023-11-22T06:38:21;7.63;;;5.80;;
7503;SDS011;3793;48.136;11.536;2023-11-22T06:40:47;7.50;;;5.97;;
7503;SDS011;3793;48.136;11.536;2023-11-22T06:43:14;6.63;;;5.10;;
7503;SDS011;3793;48.136;11.536;2023-11-22T06:45:41;7.67;;;5.50;;
7503;SDS011;3793;48.136;11.536;2023-11-22T06:48:09;8.33;;;6.43;;
7503;SDS011;3793;48.136;11.536;2023-11-22T06:50:36;9.20;;;5.97;;
7503;SDS011;3793;48.136;11.536;2023-11-22T06:53:02;8.37;;;5.83;;
7503;SDS011;3793;48.136;11.536;2023-11-22T06:55:29;6.93;;;5.67;;
7503;SDS011;3793;48.136;11.536;2023-11-22T06:57:57;6.90;;;5.10;;
7503;SDS011;3793;48.136;11.536;2023-11-22T07:00:24;7.57;;;5.40;;
7503;SDS011;3793;48.136;11.536;2023-11-22T07:02:52;6.17;;;4.90;;
7503;SDS011;3793;48.136;11.536;2023-11-22T07:05:21;7.03;;;5.47;;
7503;SDS011;3793;48.136;11.536;2023-11-22T07:07:49;5.80;;;4.47;;
7503;SDS011;3793;48.136;11.536;2023-11-22T07:10:15;6.47;;;4.97;;
7503;SDS011;3793;48.136;11.536;2023-11-22T07:12:45;5.73;;;4.77;;
7503;SDS011;3793;48.136;11.536;2023-11-22T07:15:13;7.23;;;4.90;;
7503;SDS011;3793;48.136;11.536;2023-11-22T07:17:40;6.43;;;5.33;;
7503;SDS011;3793;48.136;11.536;2023-11-22T07:20:07;5.87;;;4.47;;
7503;SDS011;3793;48.136;11.536;2023-11-22T07:22:39;6.07;;;4.60;;
7503;SDS011;3793;48.136;11.536;2023-11-22T07:25:08;5.03;;;4.23;;
7503;SDS011;3793;48.136;11.536;2023-11-22T07:27:43;6.70;;;4.43;;
7503;SDS011;3793;48.136;11.536;2023-11-22T07:30:16;5.90;;;4.70;;
7503;SDS011;3793;48.136;11.536;2023-11-22T07:32:50;5.90;;;4.80;;
7503;SDS011;3793;48.136;11.536;2023-11-22T07:35:22;6.03;;;4.90;;
7503;SDS011;3793;48.136;11.536;2023-11-22T07:38:19;5.50;;;4.80;;
7503;SDS011;3793;48.136;11.536;2023-11-22T07:40:48;6.80;;;4.50;;
7503;SDS011;3793;48.136;11.536;2023-11-22T07:43:29;6.97;;;4.90;;
7503;SDS011;3793;48.136;11.536;2023-11-22T07:45:56;6.37;;;5.10;;
7503;SDS011;3793;48.136;11.536;2023-11-22T07:48:28;6.83;;;5.00;;
7503;SDS011;3793;48.136;11.536;2023-11-22T07:50:56;6.33;;;4.87;;
7503;SDS011;3793;48.136;11.536;2023-11-22T07:53:30;5.47;;;4.53;;
7503;SDS011;3793;48.136;11.536;2023-11-22T07:55:59;6.20;;;4.57;;
7503;SDS011;3793;48.136;11.536;2023-11-22T07:58:29;5.93;;;4.67;;
7503;SDS011;3793;48.136;11.536;2023-11-22T08:00:59;5.90;;;4.67;;
7503;SDS011;3793;48.136;11.536;2023-11-22T08:03:31;6.87;;;5.20;;
7503;SDS011;3793;48.136;11.536;2023-11-22T08:05:59;5.83;;;4.53;;
7503;SDS011;3793;48.136;11.536;2023-11-22T08:08:28;7.77;;;5.73;;
7503;SDS011;3793;48.136;11.536;2023-11-22T08:11:01;8.03;;;5.47;;
7503;SDS011;3793;48.136;11.536;2023-11-22T08:13:29;9.37;;;5.90;;
7503;SDS011;3793;48.136;11.536;2023-11-22T08:15:57;6.83;;;5.13;;
7503;SDS011;3793;48.136;11.536;2023-11-22T08:18:23;6.77;;;5.17;;
7503;SDS011;3793;48.136;11.536;2023-11-22T08:20:52;6.47;;;5.70;;
7503;SDS011;3793;48.136;11.536;2023-11-22T08:23:19;6.57;;;5.43;;
7503;SDS011;3793;48.136;11.536;2023-11-22T08:25:45;9.23;;;6.87;;
7503;SDS011;3793;48.136;11.536;2023-11-22T08:28:14;7.43;;;5.87;;
7503;SDS011;3793;48.136;11.536;2023-11-22T08:30:41;7.47;;;5.73;;
7503;SDS011;3793;48.136;11.536;2023-11-22T08:33:07;7.07;;;5.47;;
7503;SDS011;3793;48.136;11.536;2023-11-22T08:35:34;6.93;;;5.43;;
7503;SDS011;3793;48.136;11.536;2023-11-22T08:38:01;9.53;;;6.00;;
7503;SDS011;3793;48.136;11.536;2023-11-22T08:40:30;8.37;;;6.20;;
7503;SDS011;3793;48.136;11.536;2023-11-22T08:42:57;8.50;;;6.13;;
7503;SDS011;3793;48.136;11.536;2023-11-22T08:45:26;7.43;;;5.97;;
7503;SDS011;3793;48.136;11.536;2023-11-22T08:47:54;7.10;;;6.07;;
7503;SDS011;3793;48.136;11.536;2023-11-22T08:50:21;7.63;;;5.40;;
7503;SDS011;3793;48.136;11.536;2023-11-22T08:52:48;5.90;;;5.30;;
7503;SDS011;3793;48.136;11.536;2023-11-22T08:55:17;7.30;;;5.30;;
7503;SDS011;3793;48.136;11.536;2023-11-22T08:57:47;8.27;;;5.37;;
7503;SDS011;3793;48.136;11.536;2023-11-22T09:00:12;6.87;;;5.07;;
7503;SDS011;3793;48.136;11.536;2023-11-22T09:02:41;6.70;;;5.40;;
7503;SDS011;3793;48.136;11.536;2023-11-22T09:05:08;8.30;;;5.83;;
7503;SDS011;3793;48.136;11.536;2023-11-22T09:07:37;8.17;;;6.13;;
7503;SDS011;3793;48.136;11.536;2023-11-22T09:10:05;7.67;;;5.93;;
7503;SDS011;3793;48.136;11.536;2023-11-22T09:12:35;9.67;;;6.07;;
7503;SDS011;3793;48.136;11.536;2023-11-22T09:15:01;8.00;;;5.93;;
7503;SDS011;3793;48.136;11.536;2023-11-22T09:17:29;8.07;;;5.60;;
7503;SDS011;3793;48.136;11.536;2023-11-22T09:19:57;7.33;;;5.90;;
7503;SDS011;3793;48.136;11.536;2023-11-22T09:22:24;7.87;;;6.07;;
7503;SDS011;3793;48.136;11.536;2023-11-22T09:24:51;8.57;;;5.37;;
7503;SDS011;3793;48.136;11.536;2023-11-22T09:27:18;7.80;;;5.97;;
7503;SDS011;3793;48.136;11.536;2023-11-22T09:29:45;9.43;;;5.90;;
7503;SDS011;3793;48.136;11.536;2023-11-22T09:32:13;7.17;;;5.50;;
7503;SDS011;3793;48.136;11.536;2023-11-22T09:34:40;6.63;;;5.70;;
7503;SDS011;3793;48.136;11.536;2023-11-22T09:37:11;7.23;;;5.60;;
7503;SDS011;3793;48.136;11.536;2023-11-22T09:39:37;6.90;;;5.20;;
7503;SDS011;3793;48.136;11.536;2023-11-22T09:42:04;7.63;;;5.13;;
7503;SDS011;3793;48.136;11.536;2023-11-22T09:44:31;6.07;;;5.00;;
7503;SDS011;3793;48.136;11.536;2023-11-22T09:46:58;6.57;;;4.97;;
7503;SDS011;3793;48.136;11.536;2023-11-22T09:49:24;5.63;;;5.00;;
7503;SDS011;3793;48.136;11.536;2023-11-22T09:51:54;5.93;;;4.90;;
7503;SDS011;3793;48.136;11.536;2023-11-22T09:54:22;7.87;;;5.60;;
7503;SDS011;3793;48.136;11.536;2023-11-22T09:56:55;5.77;;;4.70;;
7503;SDS011;3793;48.136;11.536;2023-11-22T09:59:22;6.47;;;4.83;;
7503;SDS011;3793;48.136;11.536;2023-11-22T10:01:49;7.97;;;5.30;;
7503;SDS011;3793;48.136;11.536;2023-11-22T10:04:17;8.73;;;4.57;;
7503;SDS011;3793;48.136;11.536;2023-11-22T10:06:44;6.00;;;5.40;;
7503;SDS011;3793;48.136;11.536;2023-11-22T10:09:11;6.73;;;5.07;;
7503;SDS011;3793;48.136;11.536;2023-11-22T10:11:41;6.20;;;4.50;;
7503;SDS011;3793;48.136;11.536;2023-11-22T10:14:10;5.07;;;4.57;;
7503;SDS011;3793;48.136;11.536;2023-11-22T10:16:36;5.03;;;4.27;;
7503;SDS011;3793;48.136;11.536;2023-11-22T10:19:03;5.07;;;4.40;;
7503;SDS011;3793;48.136;11.536;2023-11-22T10:21:31;5.23;;;4.47;;
7503;SDS011;3793;48.136;11.536;2023-11-22T10:24:00;6.03;;;4.77;;
7503;SDS011;3793;48.136;11.536;2023-11-22T10:26:27;7.53;;;4.23;;
7503;SDS011;3793;48.136;11.536;2023-11-22T10:28:55;5.33;;;4.70;;
7503;SDS011;3793;48.136;11.536;2023-11-22T10:31:22;5.40;;;4.53;;
7503;SDS011;3793;48.136;11.536;2023-11-22T10:33:49;5.87;;;3.87;;
7503;SDS011;3793;48.136;11.536;2023-11-22T10:36:18;4.30;;;3.90;;
7503;SDS011;3793;48.136;11.536;2023-11-22T10:38:45;5.17;;;4.50;;
7503;SDS011;3793;48.136;11.536;2023-11-22T10:41:12;5.43;;;4.47;;
7503;SDS011;3793;48.136;11.536;2023-11-22T10:43:39;4.57;;;4.00;;
7503;SDS011;3793;48.136;11.536;2023-11-22T10:46:08;5.47;;;4.20;;
7503;SDS011;3793;48.136;11.536;2023-11-22T10:48:35;5.83;;;4.33;;
7503;SDS011;3793;48.136;11.536;2023-11-22T10:51:03;5.63;;;4.13;;
7503;SDS011;3793;48.136;11.536;2023-11-22T10:53:31;5.53;;;4.23;;
7503;SDS011;3793;48.136;11.536;2023-11-22T10:56:02;4.50;;;4.10;;
7503;SDS011;3793;48.136;11.536;2023-11-22T10:58:29;6.37;;;3.57;;
7503;SDS011;3793;48.136;11.536;2023-11-22T11:00:58;5.00;;;4.00;;
7503;SDS011;3793;48.136;11.536;2023-11-22T11:03:28;4.83;;;3.70;;
7503;SDS011;3793;48.136;11.536;2023-11-22T11:05:57;5.57;;;4.20;;
7503;SDS011;3793;48.136;11.536;2023-11-22T11:08:24;7.87;;;4.10;;
7503;SDS011;3793;48.136;11.536;2023-11-22T11:10:52;5.97;;;4.00;;
7503;SDS011;3793;48.136;11.536;2023-11-22T11:13:21;5.43;;;4.40;;
7503;SDS011;3793;48.136;11.536;2023-11-22T11:15:48;4.87;;;3.27;;
7503;SDS011;3793;48.136;11.536;2023-11-22T11:18:16;4.77;;;3.80;;
7503;SDS011;3793;48.136;11.536;2023-11-22T11:20:48;4.67;;;3.90;;
7503;SDS011;3793;48.136;11.536;2023-11-22T11:23:14;4.07;;;3.67;;
7503;SDS011;3793;48.136;11.536;2023-11-22T11:25:41;4.43;;;3.60;;
7503;SDS011;3793;48.136;11.536;2023-11-22T11:28:09;4.53;;;3.70;;
7503;SDS011;3793;48.136;11.536;2023-11-22T11:30:46;4.20;;;3.40;;
7503;SDS011;3793;48.136;11.536;2023-11-22T11:33:13;4.33;;;3.53;;
7503;SDS011;3793;48.136;11.536;2023-11-22T11:35:42;4.83;;;3.63;;
7503;SDS011;3793;48.136;11.536;2023-11-22T11:38:13;7.17;;;3.77;;
7503;SDS011;3793;48.136;11.536;2023-11-22T11:40:40;5.07;;;3.93;;
7503;SDS011;3793;48.136;11.536;2023-11-22T11:43:07;5.17;;;4.23;;
7503;SDS011;3793;48.136;11.536;2023-11-22T11:45:35;4.57;;;3.80;;
7503;SDS011;3793;48.136;11.536;2023-11-22T11:48:01;6.07;;;3.60;;
7503;SDS011;3793;48.136;11.536;2023-11-22T11:50:28;4.50;;;3.90;;
7503;SDS011;3793;48.136;11.536;2023-11-22T11:52:55;5.83;;;3.83;;
7503;SDS011;3793;48.136;11.536;2023-11-22T11:55:23;4.33;;;3.40;;
7503;SDS011;3793;48.136;11.536;2023-11-22T11:57:49;4.40;;;3.77;;
7503;SDS011;3793;48.136;11.536;2023-11-22T12:00:17;4.50;;;3.70;;
7503;SDS011;3793;48.136;11.536;2023-11-22T12:02:44;4.63;;;3.77;;
7503;SDS011;3793;48.136;11.536;2023-11-22T12:05:10;4.73;;;3.93;;
7503;SDS011;3793;48.136;11.536;2023-11-22T12:07:38;4.27;;;3.73;;
7503;SDS011;3793;48.136;11.536;2023-11-22T12:10:05;3.80;;;3.43;;
7503;SDS011;3793;48.136;11.536;2023-11-22T12:12:42;4.67;;;3.60;;
7503;SDS011;3793;48.136;11.536;2023-11-22T12:15:09;4.97;;;3.73;;
7503;SDS011;3793;48.136;11.536;2023-11-22T12:17:36;5.17;;;4.00;;
7503;SDS011;3793;48.136;11.536;2023-11-22T12:20:10;4.13;;;3.73;;
7503;SDS011;3793;48.136;11.536;2023-11-22T12:22:37;4.47;;;4.03;;
7503;SDS011;3793;48.136;11.536;2023-11-22T12:25:04;4.17;;;3.73;;
7503;SDS011;3793;48.136;11.536;2023-11-22T12:27:31;3.80;;;3.43;;
7503;SDS011;3793;48.136;11.536;2023-11-22T12:29:59;3.90;;;3.50;;
7503;SDS011;3793;48.136;11.536;2023-11-22T12:32:26;4.90;;;3.70;;
7503;SDS011;3793;48.136;11.536;2023-11-22T12:34:53;6.00;;;3.63;;
7503;SDS011;3793;48.136;11.536;2023-11-22T12:37:20;7.33;;;3.53;;
7503;SDS011;3793;48.136;11.536;2023-11-22T12:39:48;4.47;;;3.43;;
7503;SDS011;3793;48.136;11.536;2023-11-22T12:42:14;3.83;;;3.30;;
7503;SDS011;3793;48.136;11.536;2023-11-22T12:44:47;3.90;;;3.50;;
7503;SDS011;3793;48.136;11.536;2023-11-22T12:47:18;4.80;;;4.10;;
7503;SDS011;3793;48.136;11.536;2023-11-22T12:49:57;6.47;;;4.30;;
7503;SDS011;3793;48.136;11.536;2023-11-22T12:52:25;4.43;;;4.03;;
7503;SDS011;3793;48.136;11.536;2023-11-22T12:54:52;4.87;;;4.10;;
7503;SDS011;3793;48.136;11.536;2023-11-22T12:57:20;5.33;;;4.23;;
7503;SDS011;3793;48.136;11.536;2023-11-22T12:59:49;4.00;;;3.60;;
7503;SDS011;3793;48.136;11.536;2023-11-22T13:02:17;4.03;;;3.63;;
7503;SDS011;3793;48.136;11.536;2023-11-22T13:04:44;4.13;;;3.73;;
7503;SDS011;3793;48.136;11.536;2023-11-22T13:07:11;5.93;;;4.43;;
7503;SDS011;3793;48.136;11.536;2023-11-22T13:09:38;5.93;;;5.17;;
7503;SDS011;3793;48.136;11.536;2023-11-22T13:12:04;7.70;;;4.93;;
7503;SDS011;3793;48.136;11.536;2023-11-22T13:14:31;6.03;;;4.43;;
7503;SDS011;3793;48.136;11.536;2023-11-22T13:17:03;7.50;;;4.20;;
7503;SDS011;3793;48.136;11.536;2023-11-22T13:19:31;5.47;;;4.60;;
7503;SDS011;3793;48.136;11.536;2023-11-22T13:21:57;7.17;;;4.30;;
7503;SDS011;3793;48.136;11.536;2023-11-22T13:24:24;6.37;;;4.17;;
7503;SDS011;3793;48.136;11.536;2023-11-22T13:26:51;4.60;;;4.20;;
7503;SDS011;3793;48.136;11.536;2023-11-22T13:29:17;5.67;;;4.00;;
7503;SDS011;3793;48.136;11.536;2023-11-22T13:31:44;5.17;;;4.13;;
7503;SDS011;3793;48.136;11.536;2023-11-22T13:34:11;5.77;;;4.17;;
7503;SDS011;3793;48.136;11.536;2023-11-22T13:36:39;4.40;;;3.97;;
7503;SDS011;3793;48.136;11.536;2023-11-22T13:39:05;4.80;;;3.90;;
7503;SDS011;3793;48.136;11.536;2023-11-22T13:41:32;4.57;;;4.07;;
7503;SDS011;3793;48.136;11.536;2023-11-22T13:43:59;5.37;;;3.50;;
7503;SDS011;3793;48.136;11.536;2023-11-22T13:46:25;5.30;;;3.80;;
7503;SDS011;3793;48.136;11.536;2023-11-22T13:48:52;4.70;;;3.70;;
7503;SDS011;3793;48.136;11.536;2023-11-22T13:51:19;4.37;;;3.73;;
7503;SDS011;3793;48.136;11.536;2023-11-22T13:53:47;4.20;;;3.53;;
7503;SDS011;3793;48.136;11.536;2023-11-22T13:56:18;4.77;;;3.90;;
7503;SDS011;3793;48.136;11.536;2023-11-22T13:58:45;4.63;;;4.07;;
7503;SDS011;3793;48.136;11.536;2023-11-22T14:01:12;6.60;;;4.30;;
7503;SDS011;3793;48.136;11.536;2023-11-22T14:03:46;5.87;;;4.10;;
7503;SDS011;3793;48.136;11.536;2023-11-22T14:06:13;4.47;;;4.07;;
7503;SDS011;3793;48.136;11.536;2023-11-22T14:08:41;4.70;;;3.87;;
7503;SDS011;3793;48.136;11.536;2023-11-22T14:11:10;4.43;;;3.90;;
7503;SDS011;3793;48.136;11.536;2023-11-22T14:13:37;4.17;;;3.77;;
7503;SDS011;3793;48.136;11.536;2023-11-22T14:16:05;3.93;;;3.43;;
7503;SDS011;3793;48.136;11.536;2023-11-22T14:18:31;4.50;;;3.60;;
7503;SDS011;3793;48.136;11.536;2023-11-22T14:20:58;4.70;;;4.20;;
7503;SDS011;3793;48.136;11.536;2023-11-22T14:23:25;5.93;;;4.00;;
7503;SDS011;3793;48.136;11.536;2023-11-22T14:25:51;3.93;;;3.63;;
7503;SDS011;3793;48.136;11.536;2023-11-22T14:28:19;5.13;;;4.40;;
7503;SDS011;3793;48.136;11.536;2023-11-22T14:30:46;4.07;;;3.57;;
7503;SDS011;3793;48.136;11.536;2023-11-22T14:33:16;4.00;;;3.60;;
7503;SDS011;3793;48.136;11.536;2023-11-22T14:35:43;5.33;;;3.90;;
7503;SDS011;3793;48.136;11.536;2023-11-22T14:38:10;4.83;;;4.07;;
7503;SDS011;3793;48.136;11.536;2023-11-22T14:40:38;3.93;;;3.27;;
7503;SDS011;3793;48.136;11.536;2023-11-22T14:43:05;4.17;;;3.73;;
7503;SDS011;3793;48.136;11.536;2023-11-22T14:45:33;5.57;;;3.67;;
7503;SDS011;3793;48.136;11.536;2023-11-22T14:48:02;4.73;;;3.73;;
7503;SDS011;3793;48.136;11.536;2023-11-22T14:50:28;4.33;;;3.57;;
7503;SDS011;3793;48.136;11.536;2023-11-22T14:52:56;4.67;;;4.10;;
7503;SDS011;3793;48.136;11.536;2023-11-22T14:55:23;4.93;;;4.40;;
7503;SDS011;3793;48.136;11.536;2023-11-22T14:57:51;4.37;;;3.87;;
7503;SDS011;3793;48.136;11.536;2023-11-22T15:00:19;4.63;;;3.70;;
7503;SDS011;3793;48.136;11.536;2023-11-22T15:02:47;4.90;;;4.03;;
7503;SDS011;3793;48.136;11.536;2023-11-22T15:05:17;5.33;;;3.87;;
7503;SDS011;3793;48.136;11.536;2023-11-22T15:07:44;4.73;;;4.23;;
7503;SDS011;3793;48.136;11.536;2023-11-22T15:10:11;4.40;;;3.80;;
7503;SDS011;3793;48.136;11.536;2023-11-22T15:12:39;4.40;;;3.70;;
7503;SDS011;3793;48.136;11.536;2023-11-22T15:15:07;5.00;;;3.80;;
7503;SDS011;3793;48.136;11.536;2023-11-22T15:17:34;4.37;;;3.97;;
7503;SDS011;3793;48.136;11.536;2023-11-22T15:20:02;5.73;;;4.30;;
7503;SDS011;3793;48.136;11.536;2023-11-22T15:22:30;4.70;;;4.20;;
7503;SDS011;3793;48.136;11.536;2023-11-22T15:24:57;4.90;;;4.13;;
7503;SDS011;3793;48.136;11.536;2023-11-22T15:27:25;5.83;;;4.13;;
7503;SDS011;3793;48.136;11.536;2023-11-22T15:29:52;5.10;;;4.23;;
7503;SDS011;3793;48.136;11.536;2023-11-22T15:32:18;5.33;;;3.67;;
7503;SDS011;3793;48.136;11.536;2023-11-22T15:34:45;4.43;;;3.77;;
7503;SDS011;3793;48.136;11.536;2023-11-22T15:37:13;4.20;;;3.70;;
7503;SDS011;3793;48.136;11.536;2023-11-22T15:39:41;4.43;;;3.90;;
7503;SDS011;3793;48.136;11.536;2023-11-22T15:42:07;4.13;;;3.50;;
7503;SDS011;3793;48.136;11.536;2023-11-22T15:44:34;4.43;;;3.67;;
7503;SDS011;3793;48.136;11.536;2023-11-22T15:47:01;3.87;;;3.47;;
7503;SDS011;3793;48.136;11.536;2023-11-22T15:49:33;4.13;;;3.73;;
7503;SDS011;3793;48.136;11.536;2023-11-22T15:51:59;4.13;;;3.70;;
7503;SDS011;3793;48.136;11.536;2023-11-22T15:54:28;3.77;;;3.40;;
7503;SDS011;3793;48.136;11.536;2023-11-22T15:56:55;3.90;;;3.37;;
7503;SDS011;3793;48.136;11.536;2023-11-22T15:59:22;4.53;;;3.43;;
7503;SDS011;3793;48.136;11.536;2023-11-22T16:01:48;5.37;;;3.83;;